createdAt,value
2022-08-26T00:02:03.805Z,26.60
2022-08-26T00:04:34.199Z,26.57
2022-08-26T00:07:01.147Z,26.53
2022-08-26T00:09:29.289Z,26.51
2022-08-26T00:11:56.319Z,26.49
2022-08-26T00:14:30.818Z,26.43
2022-08-26T00:16:58.692Z,26.40
2022-08-26T00:19:25.983Z,26.33
2022-08-26T00:21:53.160Z,26.33
2022-08-26T00:24:21.721Z,26.29
2022-08-26T00:26:50.112Z,26.27
2022-08-26T00:29:19.012Z,26.21
2022-08-26T00:31:48.200Z,26.20
2022-08-26T00:34:16.655Z,26.17
2022-08-26T00:36:46.769Z,26.13
2022-08-26T00:39:14.154Z,26.09
2022-08-26T00:41:41.833Z,26.08
2022-08-26T00:44:11.192Z,26.06
2022-08-26T00:46:46.841Z,26.02
2022-08-26T00:49:20.131Z,26.00
2022-08-26T00:51:55.305Z,25.97
2022-08-26T00:54:27.613Z,25.95
2022-08-26T00:57:16.506Z,25.96
2022-08-26T00:59:48.947Z,25.96
2022-08-26T01:02:20.858Z,25.96
2022-08-26T01:04:55.902Z,25.96
2022-08-26T01:07:26.431Z,25.99
2022-08-26T01:09:55.682Z,25.99
2022-08-26T01:12:27.689Z,25.97
2022-08-26T01:14:56.047Z,26.00
2022-08-26T01:17:22.920Z,26.01
2022-08-26T01:20:08.845Z,26.01
2022-08-26T01:22:59.425Z,26.00
2022-08-26T01:25:33.269Z,26.02
2022-08-26T01:28:06.369Z,26.03
2022-08-26T01:30:36.867Z,26.05
2022-08-26T01:33:10.051Z,26.03
2022-08-26T01:35:39.267Z,26.05
2022-08-26T01:38:07.250Z,26.03
2022-08-26T01:40:43.167Z,26.05
2022-08-26T01:43:23.380Z,26.03
2022-08-26T01:45:54.597Z,26.02
2022-08-26T01:48:28.484Z,25.99
2022-08-26T01:51:01.784Z,25.99
2022-08-26T01:53:30.095Z,26.00
2022-08-26T01:56:02.322Z,26.00
2022-08-26T01:58:44.664Z,25.97
2022-08-26T02:01:11.939Z,25.99
2022-08-26T02:04:01.759Z,25.97
2022-08-26T02:06:29.645Z,25.99
2022-08-26T02:09:01.909Z,26.01
2022-08-26T02:11:29.183Z,26.00
2022-08-26T02:14:02.887Z,25.99
2022-08-26T02:16:37.862Z,25.98
2022-08-26T02:19:16.975Z,25.99
2022-08-26T02:21:51.022Z,25.96
2022-08-26T02:24:23.735Z,25.97
2022-08-26T02:26:57.355Z,25.94
2022-08-26T02:29:37.417Z,25.93
2022-08-26T02:32:11.133Z,25.93
2022-08-26T02:34:38.282Z,25.91
2022-08-26T02:37:13.764Z,25.91
2022-08-26T02:39:44.462Z,25.92
2022-08-26T02:42:13.226Z,25.89
2022-08-26T02:44:40.634Z,25.88
2022-08-26T02:47:08.551Z,25.87
2022-08-26T02:49:37.783Z,25.88
2022-08-26T02:52:04.756Z,25.84
2022-08-26T02:54:31.810Z,25.85
2022-08-26T02:57:02.959Z,25.82
2022-08-26T02:59:34.380Z,25.80
2022-08-26T03:02:02.018Z,25.78
2022-08-26T03:04:30.477Z,25.80
2022-08-26T03:07:00.349Z,25.78
2022-08-26T03:09:30.748Z,25.76
2022-08-26T03:11:58.189Z,25.77
2022-08-26T03:14:25.462Z,25.76
2022-08-26T03:16:54.753Z,25.75
2022-08-26T03:19:25.365Z,25.76
2022-08-26T03:21:57.818Z,25.75
2022-08-26T03:24:28.922Z,25.74
2022-08-26T03:26:58.710Z,25.75
2022-08-26T03:29:44.094Z,25.73
2022-08-26T03:32:18.931Z,25.70
2022-08-26T03:34:46.376Z,25.68
2022-08-26T03:37:15.226Z,25.69
2022-08-26T03:39:42.054Z,25.67
2022-08-26T03:42:09.137Z,25.68
2022-08-26T03:44:40.117Z,25.68
2022-08-26T03:47:09.417Z,25.65
2022-08-26T03:49:42.090Z,25.67
2022-08-26T03:52:09.086Z,25.65
2022-08-26T03:54:36.186Z,25.65
2022-08-26T03:57:03.643Z,25.64
2022-08-26T03:59:32.124Z,25.62
2022-08-26T04:02:01.323Z,25.61
2022-08-26T04:04:28.220Z,25.60
2022-08-26T04:06:59.410Z,25.57
2022-08-26T04:09:27.984Z,25.56
2022-08-26T04:11:55.928Z,25.56
2022-08-26T04:14:25.904Z,25.55
2022-08-26T04:16:55.679Z,25.56
2022-08-26T04:19:25.426Z,25.53
2022-08-26T04:21:53.459Z,25.53
2022-08-26T04:24:24.332Z,25.51
2022-08-26T04:26:56.336Z,25.52
2022-08-26T04:29:26.859Z,25.49
2022-08-26T04:31:55.918Z,25.51
2022-08-26T04:34:27.221Z,25.51
2022-08-26T04:36:56.762Z,25.51
2022-08-26T04:39:24.121Z,25.49
2022-08-26T04:41:54.728Z,25.48
2022-08-26T04:44:26.160Z,25.48
2022-08-26T04:46:54.327Z,25.47
2022-08-26T04:49:22.989Z,25.47
2022-08-26T04:51:53.233Z,25.45
2022-08-26T04:54:20.652Z,25.44
2022-08-26T04:56:49.598Z,25.44
2022-08-26T04:59:18.129Z,25.45
2022-08-26T05:01:50.724Z,25.43
2022-08-26T05:04:21.332Z,25.44
2022-08-26T05:06:50.183Z,25.43
2022-08-26T05:09:18.504Z,25.42
2022-08-26T05:11:48.572Z,25.43
2022-08-26T05:14:20.323Z,25.43
2022-08-26T05:16:47.757Z,25.41
2022-08-26T05:19:19.043Z,25.40
2022-08-26T05:21:49.755Z,25.42
2022-08-26T05:24:17.842Z,25.43
2022-08-26T05:26:47.228Z,25.44
2022-08-26T05:29:18.262Z,25.41
2022-08-26T05:31:46.790Z,25.44
2022-08-26T05:34:14.500Z,25.43
2022-08-26T05:36:41.390Z,25.42
2022-08-26T05:39:10.595Z,25.47
2022-08-26T05:41:42.147Z,25.48
2022-08-26T05:44:14.007Z,25.50
2022-08-26T05:46:41.713Z,25.51
2022-08-26T05:49:12.786Z,25.53
2022-08-26T05:51:41.742Z,25.55
2022-08-26T05:54:11.597Z,25.56
2022-08-26T05:56:42.520Z,25.57
2022-08-26T05:59:14.684Z,25.58
2022-08-26T06:01:43.779Z,25.60
2022-08-26T06:04:11.565Z,25.60
2022-08-26T06:06:41.468Z,25.61
2022-08-26T06:09:10.933Z,25.63
2022-08-26T06:11:41.669Z,25.64
2022-08-26T06:14:12.078Z,25.67
2022-08-26T06:16:45.213Z,25.67
2022-08-26T06:19:15.578Z,25.69
2022-08-26T06:21:47.280Z,25.70
2022-08-26T06:24:38.936Z,25.71
2022-08-26T06:27:13.412Z,25.71
2022-08-26T06:29:40.301Z,25.70
2022-08-26T06:32:09.634Z,25.73
2022-08-26T06:34:38.876Z,25.76
2022-08-26T06:37:06.672Z,25.77
2022-08-26T06:39:35.862Z,25.77
2022-08-26T06:42:08.281Z,25.79
2022-08-26T06:44:35.150Z,25.84
2022-08-26T06:47:02.091Z,25.83
2022-08-26T06:49:31.923Z,25.85
2022-08-26T06:51:59.112Z,25.86
2022-08-26T06:54:28.323Z,25.87
2022-08-26T06:56:57.805Z,25.87
2022-08-26T06:59:25.157Z,25.89
2022-08-26T07:01:52.432Z,25.92
2022-08-26T07:04:23.207Z,25.93
2022-08-26T07:06:53.984Z,25.94
2022-08-26T07:09:29.253Z,25.95
2022-08-26T07:11:56.486Z,25.99
2022-08-26T07:14:25.032Z,26.00
2022-08-26T07:16:53.493Z,26.03
2022-08-26T07:19:31.151Z,26.05
2022-08-26T07:22:06.519Z,26.08
2022-08-26T07:24:38.954Z,26.09
2022-08-26T07:27:09.725Z,26.11
2022-08-26T07:29:39.422Z,26.13
2022-08-26T07:32:07.954Z,26.15
2022-08-26T07:34:39.466Z,26.17
2022-08-26T07:37:09.691Z,26.19
2022-08-26T07:39:38.629Z,26.21
2022-08-26T07:42:08.952Z,26.20
2022-08-26T07:44:40.595Z,26.26
2022-08-26T07:47:25.781Z,26.30
2022-08-26T07:49:56.121Z,26.33
2022-08-26T07:52:26.967Z,26.36
2022-08-26T07:54:58.313Z,26.40
2022-08-26T07:57:27.477Z,26.43
2022-08-26T07:59:55.591Z,26.49
2022-08-26T08:02:24.475Z,26.51
2022-08-26T08:04:58.344Z,26.58
2022-08-26T08:07:44.232Z,26.58
2022-08-26T08:10:23.016Z,26.59
2022-08-26T08:12:57.700Z,26.65
2022-08-26T08:15:32.135Z,26.68
2022-08-26T08:18:00.967Z,26.72
2022-08-26T08:20:29.985Z,26.74
2022-08-26T08:22:57.255Z,26.75
2022-08-26T08:25:24.754Z,26.78
2022-08-26T08:27:51.734Z,26.82
2022-08-26T08:30:22.796Z,26.81
2022-08-26T08:32:50.491Z,26.83
2022-08-26T08:35:22.344Z,26.83
2022-08-26T08:37:55.298Z,26.87
2022-08-26T08:40:26.405Z,26.87
2022-08-26T08:43:37.706Z,26.88
2022-08-26T08:46:14.130Z,26.91
2022-08-26T08:48:52.570Z,26.94
2022-08-26T08:51:34.171Z,26.96
2022-08-26T08:54:02.732Z,26.96
2022-08-26T08:56:53.028Z,27.00
2022-08-26T08:59:25.323Z,26.99
2022-08-26T09:01:54.909Z,27.01
2022-08-26T09:04:38.283Z,27.01
2022-08-26T09:07:11.730Z,27.00
2022-08-26T09:09:57.190Z,27.01
2022-08-26T09:12:32.330Z,27.02
2022-08-26T09:15:21.022Z,27.00
2022-08-26T09:18:30.342Z,26.96
2022-08-26T09:21:05.739Z,26.99
2022-08-26T09:23:41.858Z,27.00
2022-08-26T09:26:38.208Z,27.01
2022-08-26T09:31:49.632Z,27.02
2022-08-26T09:34:27.630Z,27.06
2022-08-26T09:36:59.963Z,27.06
2022-08-26T09:39:38.502Z,27.06
2022-08-26T09:42:14.205Z,27.09
2022-08-26T09:45:07.148Z,27.09
2022-08-26T09:47:51.586Z,27.11
2022-08-26T09:50:53.323Z,27.08
2022-08-26T09:53:30.488Z,27.09
2022-08-26T09:56:27.576Z,27.07
2022-08-26T09:58:57.236Z,27.12
2022-08-26T10:01:24.223Z,27.12
2022-08-26T10:03:51.964Z,27.13
2022-08-26T10:06:20.935Z,27.14
2022-08-26T10:08:54.302Z,27.13
2022-08-26T10:11:48.015Z,27.14
2022-08-26T10:14:25.196Z,27.13
2022-08-26T10:17:10.104Z,27.13
2022-08-26T10:19:57.699Z,27.13
2022-08-26T10:22:46.898Z,27.13
2022-08-26T10:25:24.802Z,27.13
2022-08-26T10:28:22.242Z,27.13
2022-08-26T10:31:17.260Z,27.12
2022-08-26T10:33:47.072Z,27.12
2022-08-26T10:37:05.090Z,27.13
2022-08-26T10:39:58.966Z,27.09
2022-08-26T10:42:58.509Z,27.09
2022-08-26T10:45:33.152Z,27.14
2022-08-26T10:48:00.098Z,27.15
2022-08-26T10:50:47.625Z,27.17
2022-08-26T10:53:39.929Z,27.19
2022-08-26T10:56:56.776Z,27.20
2022-08-26T10:59:54.712Z,27.21
2022-08-26T11:02:33.626Z,27.28
2022-08-26T11:05:06.568Z,27.30
2022-08-26T11:07:45.746Z,27.36
2022-08-26T11:10:18.714Z,27.41
2022-08-26T11:12:50.397Z,27.45
2022-08-26T11:15:24.364Z,27.53
2022-08-26T11:17:51.576Z,27.58
2022-08-26T11:20:46.300Z,27.58
2022-08-26T11:23:23.039Z,27.64
2022-08-26T11:26:08.786Z,27.60
2022-08-26T11:28:50.922Z,27.57
2022-08-26T11:31:25.332Z,27.56
2022-08-26T11:34:08.855Z,27.52
2022-08-26T11:36:46.385Z,27.53
2022-08-26T11:39:23.074Z,27.53
2022-08-26T11:41:54.511Z,27.53
2022-08-26T11:44:26.646Z,27.56
2022-08-26T11:47:00.078Z,27.57
2022-08-26T11:49:29.072Z,27.61
2022-08-26T11:52:21.992Z,27.63
2022-08-26T11:55:11.953Z,27.65
2022-08-26T11:57:51.428Z,27.67
2022-08-26T12:00:49.198Z,27.72
2022-08-26T12:03:25.857Z,27.75
2022-08-26T12:05:57.243Z,27.78
2022-08-26T12:08:31.127Z,27.83
2022-08-26T12:11:09.710Z,27.88
2022-08-26T12:13:39.617Z,27.86
2022-08-26T12:16:07.625Z,27.87
2022-08-26T12:18:38.625Z,27.91
2022-08-26T12:21:24.504Z,27.89
2022-08-26T12:23:58.493Z,27.92
2022-08-26T12:26:37.521Z,27.94
2022-08-26T12:29:19.886Z,27.94
2022-08-26T12:32:13.863Z,27.91
2022-08-26T12:34:44.181Z,27.96
2022-08-26T12:37:15.408Z,27.99
2022-08-26T12:39:44.881Z,27.98
2022-08-26T12:42:17.094Z,28.00
2022-08-26T12:44:53.991Z,27.98
2022-08-26T12:47:43.950Z,27.98
2022-08-26T12:50:21.257Z,27.97
2022-08-26T12:53:10.892Z,27.92
2022-08-26T12:55:50.756Z,27.90
2022-08-26T12:58:29.900Z,27.92
2022-08-26T13:01:09.022Z,27.90
2022-08-26T13:03:40.375Z,27.92
2022-08-26T13:06:22.360Z,27.96
2022-08-26T13:08:59.654Z,27.97
2022-08-26T13:11:53.105Z,28.01
2022-08-26T13:14:25.805Z,28.01
2022-08-26T13:16:53.775Z,28.05
2022-08-26T13:19:28.910Z,28.10
2022-08-26T13:22:00.624Z,28.13
2022-08-26T13:24:41.903Z,28.19
2022-08-26T13:27:13.465Z,28.22
2022-08-26T13:29:43.011Z,28.29
2022-08-26T13:32:10.837Z,28.34
2022-08-26T13:34:47.125Z,28.40
2022-08-26T13:37:19.791Z,28.44
2022-08-26T13:39:46.855Z,28.45
2022-08-26T13:42:14.098Z,28.48
2022-08-26T13:44:45.349Z,28.47
2022-08-26T13:47:12.491Z,28.44
2022-08-26T13:49:42.520Z,28.43
2022-08-26T13:52:11.394Z,28.37
2022-08-26T13:54:38.333Z,28.33
2022-08-26T13:57:05.999Z,28.26
2022-08-26T13:59:33.087Z,28.17
2022-08-26T14:02:03.885Z,28.11
2022-08-26T14:04:33.802Z,28.14
2022-08-26T14:07:00.958Z,28.19
2022-08-26T14:09:27.923Z,28.30
2022-08-26T14:11:55.381Z,28.38
2022-08-26T14:14:25.172Z,28.46
2022-08-26T14:16:59.336Z,28.54
2022-08-26T14:19:30.233Z,28.58
2022-08-26T14:21:58.885Z,28.60
2022-08-26T14:24:26.052Z,28.58
2022-08-26T14:26:53.088Z,28.59
2022-08-26T14:29:20.035Z,28.54
2022-08-26T14:31:47.143Z,28.53
2022-08-26T14:34:14.739Z,28.51
2022-08-26T14:36:44.254Z,28.49
2022-08-26T14:39:13.931Z,28.45
2022-08-26T14:41:53.733Z,28.41
2022-08-26T14:47:14.534Z,28.29
2022-08-26T14:49:45.180Z,28.26
2022-08-26T14:52:12.124Z,28.24
2022-08-26T14:54:43.062Z,28.24
2022-08-26T14:57:17.274Z,28.23
2022-08-26T14:59:50.012Z,28.22
2022-08-26T15:02:32.772Z,28.20
2022-08-26T15:05:02.736Z,28.22
2022-08-26T15:07:30.336Z,28.20
2022-08-26T15:09:58.281Z,28.18
2022-08-26T15:12:27.462Z,28.12
2022-08-26T15:14:59.377Z,28.09
2022-08-26T15:17:26.504Z,28.03
2022-08-26T15:19:53.552Z,27.98
2022-08-26T15:22:23.251Z,27.92
2022-08-26T15:24:53.636Z,27.85
2022-08-26T15:27:21.134Z,27.74
2022-08-26T15:29:48.265Z,27.61
2022-08-26T15:32:24.232Z,27.51
2022-08-26T15:34:53.136Z,27.41
2022-08-26T15:37:20.084Z,27.32
2022-08-26T15:39:47.837Z,27.21
2022-08-26T15:42:15.077Z,27.17
2022-08-26T15:44:45.935Z,27.10
2022-08-26T15:47:15.835Z,27.07
2022-08-26T15:49:42.967Z,27.03
2022-08-26T15:52:10.349Z,26.96
2022-08-26T15:54:39.431Z,26.92
2022-08-26T15:57:12.415Z,26.86
2022-08-26T15:59:42.717Z,26.83
2022-08-26T16:02:18.659Z,26.82
2022-08-26T16:04:47.476Z,26.79
2022-08-26T16:07:17.408Z,26.75
2022-08-26T16:09:44.459Z,26.74
2022-08-26T16:12:12.960Z,26.72
2022-08-26T16:14:41.010Z,26.69
2022-08-26T16:17:08.362Z,26.68
2022-08-26T16:19:38.273Z,26.68
2022-08-26T16:22:13.514Z,26.67
2022-08-26T16:27:35.945Z,26.58
2022-08-26T16:30:07.000Z,26.58
2022-08-26T16:32:36.934Z,26.54
2022-08-26T16:35:07.544Z,26.51
2022-08-26T16:37:38.977Z,26.50
2022-08-26T16:40:09.642Z,26.47
2022-08-26T16:42:40.853Z,26.48
2022-08-26T16:45:08.607Z,26.47
2022-08-26T16:47:41.926Z,26.45
2022-08-26T16:50:10.136Z,26.45
2022-08-26T16:52:40.220Z,26.46
2022-08-26T16:55:14.431Z,26.48
2022-08-26T16:57:47.288Z,26.47
2022-08-26T17:00:25.044Z,26.49
2022-08-26T17:02:52.317Z,26.45
2022-08-26T17:05:19.352Z,26.46
2022-08-26T17:07:48.857Z,26.48
2022-08-26T17:10:15.752Z,26.46
2022-08-26T17:12:42.925Z,26.46
2022-08-26T17:15:11.650Z,26.45
2022-08-26T17:17:42.099Z,26.42
2022-08-26T17:20:14.727Z,26.36
2022-08-26T17:22:47.575Z,26.33
2022-08-26T17:25:21.279Z,26.30
2022-08-26T17:27:48.563Z,26.27
2022-08-26T17:30:17.217Z,26.25
2022-08-26T17:32:46.707Z,26.22
2022-08-26T17:35:16.024Z,26.22
2022-08-26T17:37:44.606Z,26.23
2022-08-26T17:40:18.754Z,26.19
2022-08-26T17:42:46.167Z,26.19
2022-08-26T17:45:13.246Z,26.19
2022-08-26T17:48:03.293Z,26.14
2022-08-26T17:50:30.743Z,26.15
2022-08-26T17:52:57.811Z,26.12
2022-08-26T17:55:24.833Z,26.10
2022-08-26T17:57:51.867Z,26.08
2022-08-26T18:00:26.378Z,26.07
2022-08-26T18:02:57.161Z,26.03
2022-08-26T18:05:26.867Z,26.03
2022-08-26T18:08:05.997Z,26.00
2022-08-26T18:10:38.981Z,25.97
2022-08-26T18:13:05.979Z,25.95
2022-08-26T18:15:33.139Z,25.93
2022-08-26T18:18:04.435Z,25.90
2022-08-26T18:20:31.605Z,25.85
2022-08-26T18:22:59.518Z,25.79
2022-08-26T18:25:28.479Z,25.76
2022-08-26T18:27:55.765Z,25.71
2022-08-26T18:30:25.832Z,25.63
2022-08-26T18:32:53.253Z,25.60
2022-08-26T18:35:21.544Z,25.56
2022-08-26T18:37:48.981Z,25.53
2022-08-26T18:40:28.622Z,25.47
2022-08-26T18:42:55.567Z,25.95
2022-08-26T18:45:22.524Z,25.73
2022-08-26T18:47:52.006Z,25.54
2022-08-26T18:50:19.273Z,25.45
2022-08-26T18:52:47.760Z,25.40
2022-08-26T18:55:20.019Z,25.37
2022-08-26T18:57:51.609Z,25.30
2022-08-26T19:00:21.488Z,25.27
2022-08-26T19:03:00.763Z,25.24
2022-08-26T19:05:40.886Z,25.18
2022-08-26T19:08:10.260Z,25.18
2022-08-26T19:10:44.527Z,25.16
2022-08-26T19:13:24.173Z,25.13
2022-08-26T19:15:56.812Z,25.12
2022-08-26T19:18:26.152Z,25.05
2022-08-26T19:20:55.931Z,25.02
2022-08-26T19:23:31.898Z,24.99
2022-08-26T19:26:04.451Z,24.97
2022-08-26T19:28:32.606Z,24.93
2022-08-26T19:31:02.732Z,24.93
2022-08-26T19:33:36.797Z,24.91
2022-08-26T19:36:16.628Z,24.89
2022-08-26T19:38:48.451Z,24.83
2022-08-26T19:41:20.558Z,24.83
2022-08-26T19:43:52.968Z,24.80
2022-08-26T19:46:29.487Z,24.75
2022-08-26T19:49:02.763Z,24.74
2022-08-26T19:51:44.470Z,24.70
2022-08-26T19:54:17.560Z,24.67
2022-08-26T19:56:49.224Z,24.67
2022-08-26T19:59:18.905Z,24.66
2022-08-26T20:01:46.570Z,24.65
2022-08-26T20:04:44.523Z,24.63
2022-08-26T20:07:16.504Z,24.61
2022-08-26T20:09:52.153Z,24.63
2022-08-26T20:12:22.459Z,24.61
2022-08-26T20:14:54.729Z,24.60
2022-08-26T20:17:24.750Z,24.61
2022-08-26T20:20:33.436Z,24.56
2022-08-26T20:23:08.583Z,24.56
2022-08-26T20:25:46.400Z,24.52
2022-08-26T20:28:44.270Z,24.52
2022-08-26T20:31:14.329Z,24.50
2022-08-26T20:33:47.811Z,24.50
2022-08-26T20:36:16.087Z,24.49
2022-08-26T20:38:43.313Z,24.50
2022-08-26T20:41:15.409Z,24.51
2022-08-26T20:43:43.438Z,24.48
2022-08-26T20:46:18.819Z,24.78
2022-08-26T20:48:48.732Z,24.67
2022-08-26T20:51:17.767Z,24.57
2022-08-26T20:53:48.439Z,24.50
2022-08-26T20:56:17.981Z,24.49
2022-08-26T20:58:45.077Z,24.45
2022-08-26T21:01:21.650Z,24.44
2022-08-26T21:03:58.198Z,24.42
2022-08-26T21:06:25.366Z,24.38
2022-08-26T21:08:53.442Z,24.38
2022-08-26T21:11:21.531Z,24.37
2022-08-26T21:14:04.269Z,24.35
2022-08-26T21:16:36.682Z,24.30
2022-08-26T21:19:06.533Z,24.31
2022-08-26T21:21:34.393Z,24.30
2022-08-26T21:24:01.902Z,24.27
2022-08-26T21:26:33.984Z,24.27
2022-08-26T21:29:02.722Z,24.24
2022-08-26T21:31:32.952Z,24.59
2022-08-26T21:34:00.504Z,24.47
2022-08-26T21:36:27.422Z,24.37
2022-08-26T21:38:58.878Z,24.64
2022-08-26T21:41:27.584Z,24.50
2022-08-26T21:43:59.270Z,24.36
2022-08-26T21:46:37.376Z,24.28
2022-08-26T21:49:08.678Z,24.28
2022-08-26T21:51:46.910Z,24.26
2022-08-26T21:54:14.966Z,24.21
2022-08-26T21:56:49.799Z,24.19
2022-08-26T21:59:19.183Z,24.19
2022-08-26T22:01:46.564Z,24.19
2022-08-26T22:04:22.774Z,24.16
2022-08-26T22:06:53.845Z,24.14
2022-08-26T22:09:28.329Z,24.11
2022-08-26T22:11:56.895Z,24.08
2022-08-26T22:14:30.992Z,24.18
2022-08-26T22:17:02.587Z,24.12
2022-08-26T22:19:33.989Z,24.09
2022-08-26T22:22:02.232Z,24.02
2022-08-26T22:24:29.384Z,23.99
2022-08-26T22:26:56.752Z,23.96
2022-08-26T22:29:25.141Z,23.98
2022-08-26T22:31:53.656Z,23.95
2022-08-26T22:34:22.877Z,23.95
2022-08-26T22:36:50.780Z,23.92
2022-08-26T22:39:23.339Z,23.91
2022-08-26T22:41:51.390Z,23.88
2022-08-26T22:44:20.708Z,23.90
2022-08-26T22:46:48.978Z,23.89
2022-08-26T22:49:16.552Z,23.88
2022-08-26T22:51:46.663Z,23.86
2022-08-26T22:54:14.553Z,23.83
2022-08-26T22:56:44.645Z,23.81
2022-08-26T22:59:14.715Z,23.79
2022-08-26T23:01:47.342Z,23.75
2022-08-26T23:04:14.584Z,23.74
2022-08-26T23:06:47.793Z,23.70
2022-08-26T23:09:17.926Z,23.70
2022-08-26T23:11:49.722Z,23.69
2022-08-26T23:14:18.773Z,23.67
2022-08-26T23:16:53.267Z,23.64
2022-08-26T23:19:24.034Z,23.62
2022-08-26T23:21:51.492Z,23.60
2022-08-26T23:24:18.777Z,23.58
2022-08-26T23:26:46.759Z,23.57
2022-08-26T23:29:15.659Z,23.58
2022-08-26T23:31:43.103Z,23.58
2022-08-26T23:34:29.900Z,23.56
2022-08-26T23:36:58.508Z,23.55
2022-08-26T23:39:26.271Z,23.55
2022-08-26T23:41:53.394Z,23.58
2022-08-26T23:44:20.879Z,23.55
2022-08-26T23:46:48.044Z,23.53
2022-08-26T23:49:14.971Z,23.51
2022-08-26T23:52:00.346Z,23.53
2022-08-26T23:54:27.511Z,23.52
2022-08-26T23:56:57.613Z,23.49
2022-08-26T23:59:24.669Z,23.49
